sensor_id;sensor_type;location;lat;lon;timestamp;temperature;humidity
23347;DHT22;36852;45.466;11.066;2023-05-10T00:01:30;20.50;99.90
23347;DHT22;36852;45.466;11.066;2023-05-10T00:03:58;20.50;99.90
23347;DHT22;36852;45.466;11.066;2023-05-10T00:06:26;20.50;99.90
23347;DHT22;36852;45.466;11.066;2023-05-10T00:08:57;20.50;99.90
23347;DHT22;36852;45.466;11.066;2023-05-10T00:11:25;20.50;99.90
23347;DHT22;36852;45.466;11.066;2023-05-10T00:13:54;20.50;99.90
23347;DHT22;36852;45.466;11.066;2023-05-10T00:16:22;20.50;99.90
23347;DHT22;36852;45.466;11.066;2023-05-10T00:18:50;20.40;99.90
23347;DHT22;36852;45.466;11.066;2023-05-10T00:21:19;20.40;99.90
23347;DHT22;36852;45.466;11.066;2023-05-10T00:23:46;20.40;99.90
23347;DHT22;36852;45.466;11.066;2023-05-10T00:26:14;20.40;99.90
23347;DHT22;36852;45.466;11.066;2023-05-10T00:28:44;20.40;99.90
23347;DHT22;36852;45.466;11.066;2023-05-10T00:31:12;20.30;99.90
23347;DHT22;36852;45.466;11.066;2023-05-10T00:33:42;20.30;99.90
23347;DHT22;36852;45.466;11.066;2023-05-10T00:36:11;20.30;99.90
23347;DHT22;36852;45.466;11.066;2023-05-10T00:38:40;20.30;99.90
23347;DHT22;36852;45.466;11.066;2023-05-10T00:41:08;20.30;99.90
23347;DHT22;36852;45.466;11.066;2023-05-10T00:43:36;20.20;99.90
23347;DHT22;36852;45.466;11.066;2023-05-10T00:46:04;20.20;99.90
23347;DHT22;36852;45.466;11.066;2023-05-10T00:48:33;20.20;99.90
23347;DHT22;36852;45.466;11.066;2023-05-10T00:51:03;20.10;99.90
23347;DHT22;36852;45.466;11.066;2023-05-10T00:53:34;20.20;99.90
23347;DHT22;36852;45.466;11.066;2023-05-10T00:56:02;20.20;99.90
23347;DHT22;36852;45.466;11.066;2023-05-10T00:58:30;20.20;99.90
23347;DHT22;36852;45.466;11.066;2023-05-10T01:01:00;20.10;99.90
23347;DHT22;36852;45.466;11.066;2023-05-10T01:03:28;20.10;99.90
23347;DHT22;36852;45.466;11.066;2023-05-10T01:05:58;20.10;99.90
23347;DHT22;36852;45.466;11.066;2023-05-10T01:08:29;20.10;99.90
23347;DHT22;36852;45.466;11.066;2023-05-10T01:10:57;20.00;99.90
23347;DHT22;36852;45.466;11.066;2023-05-10T01:13:33;20.00;99.90
23347;DHT22;36852;45.466;11.066;2023-05-10T01:16:02;19.90;99.90
23347;DHT22;36852;45.466;11.066;2023-05-10T01:18:40;19.90;99.90
23347;DHT22;36852;45.466;11.066;2023-05-10T01:26:34;19.90;99.90
23347;DHT22;36852;45.466;11.066;2023-05-10T01:34:47;19.80;99.90
23347;DHT22;36852;45.466;11.066;2023-05-10T01:37:19;19.80;99.90
23347;DHT22;36852;45.466;11.066;2023-05-10T01:39:49;19.70;99.90
23347;DHT22;36852;45.466;11.066;2023-05-10T01:42:26;19.70;99.90
23347;DHT22;36852;45.466;11.066;2023-05-10T01:45:14;19.70;99.90
23347;DHT22;36852;45.466;11.066;2023-05-10T01:50:34;19.70;99.90
23347;DHT22;36852;45.466;11.066;2023-05-10T01:53:07;19.60;99.90
23347;DHT22;36852;45.466;11.066;2023-05-10T01:55:42;19.60;99.90
23347;DHT22;36852;45.466;11.066;2023-05-10T01:58:09;19.60;99.90
23347;DHT22;36852;45.466;11.066;2023-05-10T02:00:40;19.60;99.90
23347;DHT22;36852;45.466;11.066;2023-05-10T02:03:10;19.60;99.90
23347;DHT22;36852;45.466;11.066;2023-05-10T02:05:39;19.60;99.90
23347;DHT22;36852;45.466;11.066;2023-05-10T02:08:09;19.60;99.90
23347;DHT22;36852;45.466;11.066;2023-05-10T02:10:39;19.50;99.90
23347;DHT22;36852;45.466;11.066;2023-05-10T02:13:07;19.50;99.90
23347;DHT22;36852;45.466;11.066;2023-05-10T02:15:37;19.40;99.90
23347;DHT22;36852;45.466;11.066;2023-05-10T02:18:06;19.40;99.90
23347;DHT22;36852;45.466;11.066;2023-05-10T02:20:36;19.30;99.90
23347;DHT22;36852;45.466;11.066;2023-05-10T02:23:05;19.30;99.90
23347;DHT22;36852;45.466;11.066;2023-05-10T02:25:36;19.30;99.90
23347;DHT22;36852;45.466;11.066;2023-05-10T02:28:10;19.30;99.90
23347;DHT22;36852;45.466;11.066;2023-05-10T02:30:39;19.30;99.90
23347;DHT22;36852;45.466;11.066;2023-05-10T02:33:07;19.30;99.90
23347;DHT22;36852;45.466;11.066;2023-05-10T02:35:36;19.30;99.90
23347;DHT22;36852;45.466;11.066;2023-05-10T02:38:05;19.20;99.90
23347;DHT22;36852;45.466;11.066;2023-05-10T02:40:36;19.20;99.90
23347;DHT22;36852;45.466;11.066;2023-05-10T02:43:06;19.20;99.90
23347;DHT22;36852;45.466;11.066;2023-05-10T02:45:36;19.20;99.90
23347;DHT22;36852;45.466;11.066;2023-05-10T02:48:06;19.20;99.90
23347;DHT22;36852;45.466;11.066;2023-05-10T02:50:35;19.20;99.90
23347;DHT22;36852;45.466;11.066;2023-05-10T02:53:09;19.10;99.90
23347;DHT22;36852;45.466;11.066;2023-05-10T02:55:38;19.10;99.90
23347;DHT22;36852;45.466;11.066;2023-05-10T02:58:06;19.10;99.90
23347;DHT22;36852;45.466;11.066;2023-05-10T03:00:34;19.10;99.90
23347;DHT22;36852;45.466;11.066;2023-05-10T03:03:02;19.00;99.90
23347;DHT22;36852;45.466;11.066;2023-05-10T03:05:30;19.00;99.90
23347;DHT22;36852;45.466;11.066;2023-05-10T03:07:59;19.00;99.90
23347;DHT22;36852;45.466;11.066;2023-05-10T03:10:30;18.90;99.90
23347;DHT22;36852;45.466;11.066;2023-05-10T03:21:11;18.90;99.90
23347;DHT22;36852;45.466;11.066;2023-05-10T03:23:43;18.90;99.90
23347;DHT22;36852;45.466;11.066;2023-05-10T03:26:19;18.80;99.90
23347;DHT22;36852;45.466;11.066;2023-05-10T03:28:48;18.80;99.90
23347;DHT22;36852;45.466;11.066;2023-05-10T03:31:18;18.80;99.90
23347;DHT22;36852;45.466;11.066;2023-05-10T03:33:50;18.70;99.90
23347;DHT22;36852;45.466;11.066;2023-05-10T03:36:20;18.70;99.90
23347;DHT22;36852;45.466;11.066;2023-05-10T03:38:49;18.70;99.90
23347;DHT22;36852;45.466;11.066;2023-05-10T03:41:17;18.70;99.90
23347;DHT22;36852;45.466;11.066;2023-05-10T03:43:45;18.60;99.90
23347;DHT22;36852;45.466;11.066;2023-05-10T03:46:14;18.60;99.90
23347;DHT22;36852;45.466;11.066;2023-05-10T03:48:41;18.60;99.90
23347;DHT22;36852;45.466;11.066;2023-05-10T03:51:10;18.60;99.90
23347;DHT22;36852;45.466;11.066;2023-05-10T03:53:38;18.60;99.90
23347;DHT22;36852;45.466;11.066;2023-05-10T03:56:06;18.50;99.90
23347;DHT22;36852;45.466;11.066;2023-05-10T03:58:35;18.50;99.90
23347;DHT22;36852;45.466;11.066;2023-05-10T04:01:03;18.50;99.90
23347;DHT22;36852;45.466;11.066;2023-05-10T04:03:32;18.50;99.90
23347;DHT22;36852;45.466;11.066;2023-05-10T04:06:01;18.50;99.90
23347;DHT22;36852;45.466;11.066;2023-05-10T04:08:29;18.50;99.90
23347;DHT22;36852;45.466;11.066;2023-05-10T04:11:10;18.50;99.90
23347;DHT22;36852;45.466;11.066;2023-05-10T04:13:38;18.40;99.90
23347;DHT22;36852;45.466;11.066;2023-05-10T04:16:06;18.40;99.90
23347;DHT22;36852;45.466;11.066;2023-05-10T04:18:34;18.40;99.90
23347;DHT22;36852;45.466;11.066;2023-05-10T04:21:03;18.40;99.90
23347;DHT22;36852;45.466;11.066;2023-05-10T04:23:30;18.40;99.90
23347;DHT22;36852;45.466;11.066;2023-05-10T04:26:00;18.30;99.90
23347;DHT22;36852;45.466;11.066;2023-05-10T04:28:28;18.30;99.90
23347;DHT22;36852;45.466;11.066;2023-05-10T04:31:04;18.30;99.90
23347;DHT22;36852;45.466;11.066;2023-05-10T04:33:33;18.30;99.90
23347;DHT22;36852;45.466;11.066;2023-05-10T04:36:02;18.30;99.90
23347;DHT22;36852;45.466;11.066;2023-05-10T04:38:30;18.30;99.90
23347;DHT22;36852;45.466;11.066;2023-05-10T04:41:05;18.20;99.90
23347;DHT22;36852;45.466;11.066;2023-05-10T04:43:37;18.20;99.90
23347;DHT22;36852;45.466;11.066;2023-05-10T04:46:06;18.20;99.90
23347;DHT22;36852;45.466;11.066;2023-05-10T04:48:34;18.20;99.90
23347;DHT22;36852;45.466;11.066;2023-05-10T04:51:02;18.10;99.90
23347;DHT22;36852;45.466;11.066;2023-05-10T04:53:31;18.10;99.90
23347;DHT22;36852;45.466;11.066;2023-05-10T04:55:59;18.10;99.90
23347;DHT22;36852;45.466;11.066;2023-05-10T04:58:27;18.10;99.90
23347;DHT22;36852;45.466;11.066;2023-05-10T05:00:55;18.10;99.90
23347;DHT22;36852;45.466;11.066;2023-05-10T05:03:28;18.10;99.90
23347;DHT22;36852;45.466;11.066;2023-05-10T05:05:56;18.10;99.90
23347;DHT22;36852;45.466;11.066;2023-05-10T05:08:24;18.10;99.90
23347;DHT22;36852;45.466;11.066;2023-05-10T05:10:51;18.10;99.90
23347;DHT22;36852;45.466;11.066;2023-05-10T05:13:19;18.10;99.90
23347;DHT22;36852;45.466;11.066;2023-05-10T05:15:47;18.10;99.90
23347;DHT22;36852;45.466;11.066;2023-05-10T05:18:15;18.10;99.90
23347;DHT22;36852;45.466;11.066;2023-05-10T05:20:43;18.10;99.90
23347;DHT22;36852;45.466;11.066;2023-05-10T05:23:10;18.10;99.90
23347;DHT22;36852;45.466;11.066;2023-05-10T05:25:38;18.00;99.90
23347;DHT22;36852;45.466;11.066;2023-05-10T05:28:05;18.10;99.90
23347;DHT22;36852;45.466;11.066;2023-05-10T05:30:37;18.00;99.90
23347;DHT22;36852;45.466;11.066;2023-05-10T05:33:05;18.00;99.90
23347;DHT22;36852;45.466;11.066;2023-05-10T05:35:34;18.00;99.90
23347;DHT22;36852;45.466;11.066;2023-05-10T05:38:02;18.00;99.90
23347;DHT22;36852;45.466;11.066;2023-05-10T05:40:30;18.00;99.90
23347;DHT22;36852;45.466;11.066;2023-05-10T05:42:58;18.00;99.90
23347;DHT22;36852;45.466;11.066;2023-05-10T05:45:25;18.00;99.90
23347;DHT22;36852;45.466;11.066;2023-05-10T05:47:53;18.00;99.90
23347;DHT22;36852;45.466;11.066;2023-05-10T05:50:26;18.00;99.90
23347;DHT22;36852;45.466;11.066;2023-05-10T05:52:54;18.00;99.90
23347;DHT22;36852;45.466;11.066;2023-05-10T05:55:23;18.00;99.90
23347;DHT22;36852;45.466;11.066;2023-05-10T05:57:51;18.00;99.90
23347;DHT22;36852;45.466;11.066;2023-05-10T06:00:19;17.90;99.90
23347;DHT22;36852;45.466;11.066;2023-05-10T06:02:48;17.90;99.90
23347;DHT22;36852;45.466;11.066;2023-05-10T06:05:16;18.00;99.90
23347;DHT22;36852;45.466;11.066;2023-05-10T06:07:45;18.00;99.90
23347;DHT22;36852;45.466;11.066;2023-05-10T06:10:13;17.90;99.90
23347;DHT22;36852;45.466;11.066;2023-05-10T06:12:41;18.00;99.90
23347;DHT22;36852;45.466;11.066;2023-05-10T06:15:10;18.00;99.90
23347;DHT22;36852;45.466;11.066;2023-05-10T06:17:38;18.00;99.90
23347;DHT22;36852;45.466;11.066;2023-05-10T06:20:08;18.00;99.90
23347;DHT22;36852;45.466;11.066;2023-05-10T06:22:36;18.00;99.90
23347;DHT22;36852;45.466;11.066;2023-05-10T06:25:05;18.00;99.90
23347;DHT22;36852;45.466;11.066;2023-05-10T06:27:33;18.10;99.90
23347;DHT22;36852;45.466;11.066;2023-05-10T06:30:01;18.10;99.90
23347;DHT22;36852;45.466;11.066;2023-05-10T06:32:31;18.00;99.90
23347;DHT22;36852;45.466;11.066;2023-05-10T06:35:01;18.10;99.90
23347;DHT22;36852;45.466;11.066;2023-05-10T06:37:29;18.10;99.90
23347;DHT22;36852;45.466;11.066;2023-05-10T06:40:00;18.00;99.90
23347;DHT22;36852;45.466;11.066;2023-05-10T06:42:28;18.10;99.90
23347;DHT22;36852;45.466;11.066;2023-05-10T06:44:56;18.00;99.90
23347;DHT22;36852;45.466;11.066;2023-05-10T06:47:24;18.10;99.90
23347;DHT22;36852;45.466;11.066;2023-05-10T06:49:52;18.10;99.90
23347;DHT22;36852;45.466;11.066;2023-05-10T06:52:23;18.10;99.90
23347;DHT22;36852;45.466;11.066;2023-05-10T06:54:51;18.10;99.90
23347;DHT22;36852;45.466;11.066;2023-05-10T06:57:21;18.10;99.90
23347;DHT22;36852;45.466;11.066;2023-05-10T06:59:50;18.10;99.90
23347;DHT22;36852;45.466;11.066;2023-05-10T07:02:19;18.00;99.90
23347;DHT22;36852;45.466;11.066;2023-05-10T07:04:47;18.10;99.90
23347;DHT22;36852;45.466;11.066;2023-05-10T07:07:15;18.10;99.90
23347;DHT22;36852;45.466;11.066;2023-05-10T07:09:43;18.10;99.90
23347;DHT22;36852;45.466;11.066;2023-05-10T07:12:11;18.10;99.90
23347;DHT22;36852;45.466;11.066;2023-05-10T07:14:41;18.00;99.90
23347;DHT22;36852;45.466;11.066;2023-05-10T07:17:10;18.10;99.90
23347;DHT22;36852;45.466;11.066;2023-05-10T07:19:38;18.00;99.90
23347;DHT22;36852;45.466;11.066;2023-05-10T07:22:06;18.00;99.90
23347;DHT22;36852;45.466;11.066;2023-05-10T07:24:34;18.00;99.90
23347;DHT22;36852;45.466;11.066;2023-05-10T07:27:02;18.00;99.90
23347;DHT22;36852;45.466;11.066;2023-05-10T07:29:30;18.00;99.90
23347;DHT22;36852;45.466;11.066;2023-05-10T07:31:58;18.00;99.90
23347;DHT22;36852;45.466;11.066;2023-05-10T07:34:46;17.90;99.90
23347;DHT22;36852;45.466;11.066;2023-05-10T07:37:14;17.90;99.90
23347;DHT22;36852;45.466;11.066;2023-05-10T07:39:42;17.90;99.90
23347;DHT22;36852;45.466;11.066;2023-05-10T07:42:10;17.90;99.90
23347;DHT22;36852;45.466;11.066;2023-05-10T07:44:38;17.90;99.90
23347;DHT22;36852;45.466;11.066;2023-05-10T07:47:06;17.90;99.90
23347;DHT22;36852;45.466;11.066;2023-05-10T07:49:34;17.90;99.90
23347;DHT22;36852;45.466;11.066;2023-05-10T07:52:03;17.90;99.90
23347;DHT22;36852;45.466;11.066;2023-05-10T07:54:31;17.90;99.90
23347;DHT22;36852;45.466;11.066;2023-05-10T07:56:59;17.90;99.90
23347;DHT22;36852;45.466;11.066;2023-05-10T07:59:29;17.90;99.90
23347;DHT22;36852;45.466;11.066;2023-05-10T08:01:57;17.90;99.90
23347;DHT22;36852;45.466;11.066;2023-05-10T08:04:25;18.00;99.90
23347;DHT22;36852;45.466;11.066;2023-05-10T08:06:53;17.90;99.90
23347;DHT22;36852;45.466;11.066;2023-05-10T08:09:21;17.90;99.90
23347;DHT22;36852;45.466;11.066;2023-05-10T08:11:51;17.90;99.90
23347;DHT22;36852;45.466;11.066;2023-05-10T08:14:20;17.90;99.90
23347;DHT22;36852;45.466;11.066;2023-05-10T08:16:48;17.90;99.90
23347;DHT22;36852;45.466;11.066;2023-05-10T08:19:16;17.80;99.90
23347;DHT22;36852;45.466;11.066;2023-05-10T08:21:45;17.80;99.90
23347;DHT22;36852;45.466;11.066;2023-05-10T08:24:13;17.80;99.90
23347;DHT22;36852;45.466;11.066;2023-05-10T08:26:41;17.80;99.90
23347;DHT22;36852;45.466;11.066;2023-05-10T08:29:09;17.80;99.90
23347;DHT22;36852;45.466;11.066;2023-05-10T08:31:37;17.70;99.90
23347;DHT22;36852;45.466;11.066;2023-05-10T08:34:05;17.60;99.90
23347;DHT22;36852;45.466;11.066;2023-05-10T08:36:33;17.40;99.90
23347;DHT22;36852;45.466;11.066;2023-05-10T08:39:01;17.30;99.90
23347;DHT22;36852;45.466;11.066;2023-05-10T08:41:29;17.30;99.90
23347;DHT22;36852;45.466;11.066;2023-05-10T08:44:01;17.30;99.90
23347;DHT22;36852;45.466;11.066;2023-05-10T08:46:33;17.30;99.90
23347;DHT22;36852;45.466;11.066;2023-05-10T08:49:03;17.40;99.90
23347;DHT22;36852;45.466;11.066;2023-05-10T08:51:35;17.40;99.90
23347;DHT22;36852;45.466;11.066;2023-05-10T08:54:04;17.50;99.90
23347;DHT22;36852;45.466;11.066;2023-05-10T08:56:33;17.50;99.90
23347;DHT22;36852;45.466;11.066;2023-05-10T08:59:01;17.60;99.90
23347;DHT22;36852;45.466;11.066;2023-05-10T09:01:31;17.70;99.90
23347;DHT22;36852;45.466;11.066;2023-05-10T09:03:59;17.70;99.90
23347;DHT22;36852;45.466;11.066;2023-05-10T09:06:28;17.70;99.90
23347;DHT22;36852;45.466;11.066;2023-05-10T09:08:56;17.70;99.90
23347;DHT22;36852;45.466;11.066;2023-05-10T09:11:24;17.70;99.90
23347;DHT22;36852;45.466;11.066;2023-05-10T09:13:52;17.70;99.90
23347;DHT22;36852;45.466;11.066;2023-05-10T09:16:20;17.80;99.90
23347;DHT22;36852;45.466;11.066;2023-05-10T09:18:48;17.80;99.90
23347;DHT22;36852;45.466;11.066;2023-05-10T09:21:19;17.80;99.90
23347;DHT22;36852;45.466;11.066;2023-05-10T09:23:48;17.80;99.90
23347;DHT22;36852;45.466;11.066;2023-05-10T09:26:23;17.80;99.90
23347;DHT22;36852;45.466;11.066;2023-05-10T09:28:54;17.80;99.90
23347;DHT22;36852;45.466;11.066;2023-05-10T09:31:23;17.80;99.90
23347;DHT22;36852;45.466;11.066;2023-05-10T09:33:53;17.80;99.90
23347;DHT22;36852;45.466;11.066;2023-05-10T09:36:21;17.90;99.90
23347;DHT22;36852;45.466;11.066;2023-05-10T09:38:51;17.90;99.90
23347;DHT22;36852;45.466;11.066;2023-05-10T09:41:22;17.90;99.90
23347;DHT22;36852;45.466;11.066;2023-05-10T09:43:55;17.90;99.90
23347;DHT22;36852;45.466;11.066;2023-05-10T09:46:22;17.90;99.90
23347;DHT22;36852;45.466;11.066;2023-05-10T09:48:50;17.90;99.90
23347;DHT22;36852;45.466;11.066;2023-05-10T09:51:20;17.90;99.90
23347;DHT22;36852;45.466;11.066;2023-05-10T09:53:48;17.90;99.90
23347;DHT22;36852;45.466;11.066;2023-05-10T09:56:36;17.80;99.90
23347;DHT22;36852;45.466;11.066;2023-05-10T09:59:12;17.80;99.90
23347;DHT22;36852;45.466;11.066;2023-05-10T10:01:39;17.80;99.90
23347;DHT22;36852;45.466;11.066;2023-05-10T10:04:09;17.80;99.90
23347;DHT22;36852;45.466;11.066;2023-05-10T10:06:40;17.80;99.90
23347;DHT22;36852;45.466;11.066;2023-05-10T10:09:09;17.90;99.90
23347;DHT22;36852;45.466;11.066;2023-05-10T10:11:38;17.90;99.90
23347;DHT22;36852;45.466;11.066;2023-05-10T10:14:06;17.90;99.90
23347;DHT22;36852;45.466;11.066;2023-05-10T10:16:33;18.00;99.90
23347;DHT22;36852;45.466;11.066;2023-05-10T10:19:01;17.90;99.90
23347;DHT22;36852;45.466;11.066;2023-05-10T10:21:29;17.80;99.90
23347;DHT22;36852;45.466;11.066;2023-05-10T10:23:58;17.60;99.90
23347;DHT22;36852;45.466;11.066;2023-05-10T10:26:27;17.60;99.90
23347;DHT22;36852;45.466;11.066;2023-05-10T10:31:57;17.40;99.90
23347;DHT22;36852;45.466;11.066;2023-05-10T10:34:27;17.30;99.90
23347;DHT22;36852;45.466;11.066;2023-05-10T10:36:57;17.30;99.90
23347;DHT22;36852;45.466;11.066;2023-05-10T10:39:26;17.40;99.90
23347;DHT22;36852;45.466;11.066;2023-05-10T10:41:56;17.50;99.90
23347;DHT22;36852;45.466;11.066;2023-05-10T10:54:58;17.80;99.90
23347;DHT22;36852;45.466;11.066;2023-05-10T10:57:24;17.80;99.90
23347;DHT22;36852;45.466;11.066;2023-05-10T11:03:11;17.90;99.90
23347;DHT22;36852;45.466;11.066;2023-05-10T11:05:46;17.90;99.90
23347;DHT22;36852;45.466;11.066;2023-05-10T11:16:18;18.00;99.90
23347;DHT22;36852;45.466;11.066;2023-05-10T11:19:04;17.90;99.90
23347;DHT22;36852;45.466;11.066;2023-05-10T11:21:34;17.90;99.90
23347;DHT22;36852;45.466;11.066;2023-05-10T11:24:09;18.00;99.90
23347;DHT22;36852;45.466;11.066;2023-05-10T11:26:35;17.90;99.90
23347;DHT22;36852;45.466;11.066;2023-05-10T11:29:03;17.90;99.90
23347;DHT22;36852;45.466;11.066;2023-05-10T11:31:32;18.00;99.90
23347;DHT22;36852;45.466;11.066;2023-05-10T11:34:00;17.90;99.90
23347;DHT22;36852;45.466;11.066;2023-05-10T11:36:35;17.90;99.90
23347;DHT22;36852;45.466;11.066;2023-05-10T11:39:14;18.00;99.90
23347;DHT22;36852;45.466;11.066;2023-05-10T11:41:42;18.00;99.90
23347;DHT22;36852;45.466;11.066;2023-05-10T11:44:12;18.00;99.90
23347;DHT22;36852;45.466;11.066;2023-05-10T11:46:40;18.00;99.90
23347;DHT22;36852;45.466;11.066;2023-05-10T11:49:08;18.00;99.90
23347;DHT22;36852;45.466;11.066;2023-05-10T11:51:36;18.00;99.90
23347;DHT22;36852;45.466;11.066;2023-05-10T11:54:06;18.00;99.90
23347;DHT22;36852;45.466;11.066;2023-05-10T11:56:38;18.00;99.90
23347;DHT22;36852;45.466;11.066;2023-05-10T11:59:07;18.00;99.90
23347;DHT22;36852;45.466;11.066;2023-05-10T12:01:36;18.00;99.90
23347;DHT22;36852;45.466;11.066;2023-05-10T12:04:04;18.00;99.90
23347;DHT22;36852;45.466;11.066;2023-05-10T12:06:37;18.00;99.90
23347;DHT22;36852;45.466;11.066;2023-05-10T12:09:07;18.00;99.90
23347;DHT22;36852;45.466;11.066;2023-05-10T12:11:39;18.00;99.90
23347;DHT22;36852;45.466;11.066;2023-05-10T12:14:11;17.90;99.90
23347;DHT22;36852;45.466;11.066;2023-05-10T12:16:38;17.90;99.90
23347;DHT22;36852;45.466;11.066;2023-05-10T12:19:07;17.80;99.90
23347;DHT22;36852;45.466;11.066;2023-05-10T12:21:35;17.70;99.90
23347;DHT22;36852;45.466;11.066;2023-05-10T12:24:04;17.70;99.90
23347;DHT22;36852;45.466;11.066;2023-05-10T12:26:35;17.60;99.90
23347;DHT22;36852;45.466;11.066;2023-05-10T12:29:22;17.60;99.90
23347;DHT22;36852;45.466;11.066;2023-05-10T12:31:55;17.60;99.90
23347;DHT22;36852;45.466;11.066;2023-05-10T12:34:26;17.60;99.90
23347;DHT22;36852;45.466;11.066;2023-05-10T12:36:54;17.60;99.90
23347;DHT22;36852;45.466;11.066;2023-05-10T12:39:23;17.60;99.90
23347;DHT22;36852;45.466;11.066;2023-05-10T12:41:52;17.60;99.90
23347;DHT22;36852;45.466;11.066;2023-05-10T12:44:20;17.60;99.90
23347;DHT22;36852;45.466;11.066;2023-05-10T12:46:49;17.60;99.90
23347;DHT22;36852;45.466;11.066;2023-05-10T12:49:16;17.60;99.90
23347;DHT22;36852;45.466;11.066;2023-05-10T12:51:46;17.60;99.90
23347;DHT22;36852;45.466;11.066;2023-05-10T12:54:14;17.70;99.90
23347;DHT22;36852;45.466;11.066;2023-05-10T12:56:43;17.70;99.90
23347;DHT22;36852;45.466;11.066;2023-05-10T12:59:11;17.70;99.90
23347;DHT22;36852;45.466;11.066;2023-05-10T13:01:40;17.80;99.90
23347;DHT22;36852;45.466;11.066;2023-05-10T13:04:08;17.80;99.90
23347;DHT22;36852;45.466;11.066;2023-05-10T13:06:36;17.80;99.90
23347;DHT22;36852;45.466;11.066;2023-05-10T13:09:04;17.80;99.90
23347;DHT22;36852;45.466;11.066;2023-05-10T13:11:32;17.80;99.90
23347;DHT22;36852;45.466;11.066;2023-05-10T13:14:00;17.80;99.90
23347;DHT22;36852;45.466;11.066;2023-05-10T13:16:27;17.80;99.90
23347;DHT22;36852;45.466;11.066;2023-05-10T13:18:55;17.90;99.90
23347;DHT22;36852;45.466;11.066;2023-05-10T13:21:23;17.80;99.90
23347;DHT22;36852;45.466;11.066;2023-05-10T13:23:52;17.90;99.90
23347;DHT22;36852;45.466;11.066;2023-05-10T13:26:21;17.90;99.90
23347;DHT22;36852;45.466;11.066;2023-05-10T13:28:49;17.90;99.90
23347;DHT22;36852;45.466;11.066;2023-05-10T13:31:21;17.80;99.90
23347;DHT22;36852;45.466;11.066;2023-05-10T13:33:49;17.80;99.90
23347;DHT22;36852;45.466;11.066;2023-05-10T13:36:17;17.80;99.90
23347;DHT22;36852;45.466;11.066;2023-05-10T13:38:45;17.70;99.90
23347;DHT22;36852;45.466;11.066;2023-05-10T13:41:14;17.70;99.90
23347;DHT22;36852;45.466;11.066;2023-05-10T13:43:41;17.60;99.90
23347;DHT22;36852;45.466;11.066;2023-05-10T13:46:11;17.60;99.90
23347;DHT22;36852;45.466;11.066;2023-05-10T13:48:39;17.70;99.90
23347;DHT22;36852;45.466;11.066;2023-05-10T13:51:07;17.70;99.90
23347;DHT22;36852;45.466;11.066;2023-05-10T13:53:35;17.70;99.90
23347;DHT22;36852;45.466;11.066;2023-05-10T13:56:04;17.70;99.90
23347;DHT22;36852;45.466;11.066;2023-05-10T13:58:32;17.80;99.90
23347;DHT22;36852;45.466;11.066;2023-05-10T14:00:59;17.80;99.90
23347;DHT22;36852;45.466;11.066;2023-05-10T14:03:27;17.80;99.90
23347;DHT22;36852;45.466;11.066;2023-05-10T14:05:55;17.80;99.90
23347;DHT22;36852;45.466;11.066;2023-05-10T14:08:24;17.80;99.90
23347;DHT22;36852;45.466;11.066;2023-05-10T14:10:54;17.80;99.90
23347;DHT22;36852;45.466;11.066;2023-05-10T14:13:25;17.80;99.90
23347;DHT22;36852;45.466;11.066;2023-05-10T14:15:54;17.90;99.90
23347;DHT22;36852;45.466;11.066;2023-05-10T14:18:24;17.90;99.90
23347;DHT22;36852;45.466;11.066;2023-05-10T14:20:53;17.90;99.90
23347;DHT22;36852;45.466;11.066;2023-05-10T14:23:22;17.80;99.90
23347;DHT22;36852;45.466;11.066;2023-05-10T14:25:51;17.90;99.90
23347;DHT22;36852;45.466;11.066;2023-05-10T14:28:22;17.90;99.90
23347;DHT22;36852;45.466;11.066;2023-05-10T14:30:53;17.90;99.90
23347;DHT22;36852;45.466;11.066;2023-05-10T14:33:21;17.90;99.90
23347;DHT22;36852;45.466;11.066;2023-05-10T14:35:49;17.90;99.90
23347;DHT22;36852;45.466;11.066;2023-05-10T14:38:17;17.90;99.90
23347;DHT22;36852;45.466;11.066;2023-05-10T14:40:45;17.90;99.90
23347;DHT22;36852;45.466;11.066;2023-05-10T14:43:13;17.80;99.90
23347;DHT22;36852;45.466;11.066;2023-05-10T14:45:42;17.90;99.90
23347;DHT22;36852;45.466;11.066;2023-05-10T14:48:12;17.70;99.90
23347;DHT22;36852;45.466;11.066;2023-05-10T14:50:41;17.70;99.90
23347;DHT22;36852;45.466;11.066;2023-05-10T14:53:09;17.70;99.90
23347;DHT22;36852;45.466;11.066;2023-05-10T14:55:37;17.70;99.90
23347;DHT22;36852;45.466;11.066;2023-05-10T14:58:05;17.70;99.90
23347;DHT22;36852;45.466;11.066;2023-05-10T15:00:33;17.70;99.90
23347;DHT22;36852;45.466;11.066;2023-05-10T15:03:02;17.80;99.90
23347;DHT22;36852;45.466;11.066;2023-05-10T15:05:31;17.80;99.90
23347;DHT22;36852;45.466;11.066;2023-05-10T15:08:00;17.80;99.90
23347;DHT22;36852;45.466;11.066;2023-05-10T15:10:27;17.80;99.90
23347;DHT22;36852;45.466;11.066;2023-05-10T15:12:56;17.80;99.90
23347;DHT22;36852;45.466;11.066;2023-05-10T15:15:24;17.80;99.90
23347;DHT22;36852;45.466;11.066;2023-05-10T15:17:52;17.80;99.90
23347;DHT22;36852;45.466;11.066;2023-05-10T15:20:20;17.70;99.90
23347;DHT22;36852;45.466;11.066;2023-05-10T15:22:48;17.70;99.90
23347;DHT22;36852;45.466;11.066;2023-05-10T15:25:16;17.70;99.90
23347;DHT22;36852;45.466;11.066;2023-05-10T15:27:44;17.70;99.90
23347;DHT22;36852;45.466;11.066;2023-05-10T15:30:12;17.70;99.90
23347;DHT22;36852;45.466;11.066;2023-05-10T15:32:40;17.70;99.90
23347;DHT22;36852;45.466;11.066;2023-05-10T15:35:08;17.70;99.90
23347;DHT22;36852;45.466;11.066;2023-05-10T15:37:38;17.70;99.90
23347;DHT22;36852;45.466;11.066;2023-05-10T15:40:06;17.70;99.90
23347;DHT22;36852;45.466;11.066;2023-05-10T15:42:34;17.60;99.90
23347;DHT22;36852;45.466;11.066;2023-05-10T15:45:02;17.70;99.90
23347;DHT22;36852;45.466;11.066;2023-05-10T15:47:31;17.70;99.90
23347;DHT22;36852;45.466;11.066;2023-05-10T15:49:59;17.70;99.90
23347;DHT22;36852;45.466;11.066;2023-05-10T15:52:27;17.70;99.90
23347;DHT22;36852;45.466;11.066;2023-05-10T15:54:56;17.60;99.90
23347;DHT22;36852;45.466;11.066;2023-05-10T15:57:24;17.60;99.90
23347;DHT22;36852;45.466;11.066;2023-05-10T15:59:53;17.60;99.90
23347;DHT22;36852;45.466;11.066;2023-05-10T16:02:21;17.60;99.90
23347;DHT22;36852;45.466;11.066;2023-05-10T16:04:50;17.60;99.90
23347;DHT22;36852;45.466;11.066;2023-05-10T16:07:18;17.60;99.90
23347;DHT22;36852;45.466;11.066;2023-05-10T16:09:46;17.60;99.90
23347;DHT22;36852;45.466;11.066;2023-05-10T16:12:15;17.60;99.90
23347;DHT22;36852;45.466;11.066;2023-05-10T16:14:45;17.50;99.90